Time;durP1;ratioP1;P1;durP2;ratioP2;P2;SDS_P1;SDS_P2;PMS_P1;PMS_P2;Temp;Humidity;BMP_temperature;BMP_pressure;BME280_temperature;BME280_humidity;BME280_pressure;Samples;Min_cycle;Max_cycle;Signal;HPM_P1;HPM_P2
2024/01/12 00:01:35;;;;;;;;;;;;;;;;;;4972018;28;19926;-66
2024/01/12 00:04:03;;;;;;;;;;;;;;;;;;4969310;28;19922;-67
2024/01/12 00:06:28;;;;;;;;;;;;;;;;;;4954106;28;20301;-67
2024/01/12 00:08:53;;;;;;;;;;;;;;;;;;4968763;28;19921;-67
2024/01/12 00:11:19;;;;;;;;;;;;;;;;;;4984770;28;19952;-67
2024/01/12 00:13:44;;;;;;;;;;;;;;;;;;4972616;28;19918;-67
2024/01/12 00:19:28;;;;;;;;;;;;;;;;;;4972060;28;19943;-67
2024/01/12 00:21:56;;;;;;;;;;;;;;;;;;4970128;28;20154;-67
2024/01/12 00:24:24;;;;;;;;;;;;;;;;;;4968165;28;20297;-66
2024/01/12 00:26:49;;;;;;;;;;;;;;;;;;4967557;28;19928;-66
2024/01/12 00:29:15;;;;;;;;;;;;;;;;;;4971066;28;20431;-66
2024/01/12 00:31:40;;;;;;;;;;;;;;;;;;4967690;28;19918;-67
2024/01/12 00:34:08;;;;;;;;;;;;;;;;;;4969712;28;19922;-66
2024/01/12 00:36:36;;;;;;;;;;;;;;;;;;4970291;28;19924;-66
2024/01/12 00:39:04;;;;;;;;;;;;;;;;;;4970325;28;19917;-66
2024/01/12 00:41:34;;;;;;;;;;;;;;;;;;4951118;28;20012;-66
2024/01/12 00:44:06;;;;;;;;;;;;;;;;;;4953763;28;20525;-67
2024/01/12 00:46:34;;;;;;;;;;;;;;;;;;4983995;28;20290;-67
2024/01/12 00:48:59;;;;;;;;;;;;;;;;;;4953451;28;19929;-66
2024/01/12 00:51:25;;;;;;;;;;;;;;;;;;4969999;28;20024;-67
2024/01/12 00:53:53;;;;;;;;;;;;;;;;;;4970289;28;20075;-67
2024/01/12 00:56:21;;;;;;;;;;;;;;;;;;4970008;28;19922;-65
2024/01/12 00:58:46;;;;;;;;;;;;;;;;;;4968089;28;20313;-66
2024/01/12 01:01:11;;;;;;;;;;;;;;;;;;4968698;28;20298;-66
2024/01/12 01:03:36;;;;;;;;;;;;;;;;;;4972523;28;19922;-66
2024/01/12 01:06:02;;;;;;;;;;;;;;;;;;4966680;28;20004;-66
2024/01/12 01:08:37;;;;;;;;;;;;;;;;;;4969517;28;19961;-66
2024/01/12 01:11:03;;;;;;;;;;;;;;;;;;4968725;28;20203;-66
2024/01/12 01:13:28;;;;;;;;;;;;;;;;;;4971090;28;19922;-66
2024/01/12 01:15:53;;;;;;;;;;;;;;;;;;4968579;28;19922;-66
2024/01/12 01:18:18;;;;;;;;;;;;;;;;;;4951855;28;19922;-65
2024/01/12 01:20:44;;;;;;;;;;;;;;;;;;4952662;28;20457;-66
2024/01/12 01:23:09;;;;;;;;;;;;;;;;;;4967404;28;19918;-66
2024/01/12 01:25:36;;;;;;;;;;;;;;;;;;4953781;28;19918;-66
2024/01/12 01:28:02;;;;;;;;;;;;;;;;;;4985286;28;19968;-67
2024/01/12 01:30:30;;;;;;;;;;;;;;;;;;4950066;28;19929;-67
2024/01/12 01:32:58;;;;;;;;;;;;;;;;;;4969944;28;19969;-66
2024/01/12 01:35:23;;;;;;;;;;;;;;;;;;4970271;28;20020;-66
2024/01/12 01:37:50;;;;;;;;;;;;;;;;;;4951853;28;20448;-66
2024/01/12 01:40:15;;;;;;;;;;;;;;;;;;4968745;28;19972;-65
2024/01/12 01:42:40;;;;;;;;;;;;;;;;;;4964589;28;19925;-66
2024/01/12 01:45:08;;;;;;;;;;;;;;;;;;4967310;28;20658;-65
2024/01/12 01:47:33;;;;;;;;;;;;;;;;;;4949977;28;20369;-66
2024/01/12 01:49:59;;;;;;;;;;;;;;;;;;4953274;28;19979;-66
2024/01/12 01:52:27;;;;;;;;;;;;;;;;;;4967972;28;20020;-66
2024/01/12 01:54:55;;;;;;;;;;;;;;;;;;4969247;28;19932;-66
2024/01/12 01:57:20;;;;;;;;;;;;;;;;;;4966618;28;19922;-66
2024/01/12 01:59:45;;;;;;;;;;;;;;;;;;4969929;28;19997;-66
2024/01/12 02:02:11;;;;;;;;;;;;;;;;;;4949907;28;19925;-67
2024/01/12 02:04:36;;;;;;;;;;;;;;;;;;4970904;28;19928;-66
2024/01/12 02:07:04;;;;;;;;;;;;;;;;;;4952307;28;20123;-66
2024/01/12 02:09:31;;;;;;;;;;;;;;;;;;4951128;28;20047;-67
2024/01/12 02:11:56;;;;;;;;;;;;;;;;;;4953285;28;20016;-66
2024/01/12 02:14:25;;;;;;;;;;;;;;;;;;4969169;28;20173;-67
2024/01/12 02:16:52;;;;;;;;;;;;;;;;;;4967385;28;19995;-65
2024/01/12 02:19:21;;;;;;;;;;;;;;;;;;4970619;28;20225;-66
2024/01/12 02:21:49;;;;;;;;;;;;;;;;;;4967729;28;19976;-66
2024/01/12 02:24:14;;;;;;;;;;;;;;;;;;4969911;28;20029;-65
2024/01/12 02:26:42;;;;;;;;;;;;;;;;;;4968470;28;20472;-67
2024/01/12 02:29:10;;;;;;;;;;;;;;;;;;4969915;28;19917;-66
2024/01/12 02:31:38;;;;;;;;;;;;;;;;;;4951633;28;20042;-65
2024/01/12 02:34:06;;;;;;;;;;;;;;;;;;4952257;28;19922;-65
2024/01/12 02:36:31;;;;;;;;;;;;;;;;;;4952573;28;19977;-66
2024/01/12 02:39:00;;;;;;;;;;;;;;;;;;4970689;28;20340;-67
2024/01/12 02:41:25;;;;;;;;;;;;;;;;;;4950439;28;19921;-67
2024/01/12 02:43:51;;;;;;;;;;;;;;;;;;4967965;28;19953;-66
2024/01/12 02:46:17;;;;;;;;;;;;;;;;;;4969061;28;19921;-66
2024/01/12 02:48:45;;;;;;;;;;;;;;;;;;4972066;28;20520;-67
2024/01/12 02:51:10;;;;;;;;;;;;;;;;;;4989158;28;19989;-66
2024/01/12 02:53:36;;;;;;;;;;;;;;;;;;4975636;28;19925;-67
2024/01/12 02:56:01;;;;;;;;;;;;;;;;;;4958237;28;20369;-66
2024/01/12 02:58:26;;;;;;;;;;;;;;;;;;4992561;28;20380;-67
2024/01/12 03:00:52;;;;;;;;;;;;;;;;;;4976681;28;19921;-66
2024/01/12 03:03:20;;;;;;;;;;;;;;;;;;4974931;28;19927;-66
2024/01/12 03:05:45;;;;;;;;;;;;;;;;;;4973621;28;19928;-66
2024/01/12 03:08:10;;;;;;;;;;;;;;;;;;4974830;28;20289;-66
2024/01/12 03:10:36;;;;;;;;;;;;;;;;;;4956129;28;19917;-67
2024/01/12 03:13:03;;;;;;;;;;;;;;;;;;4954724;28;20040;-67
2024/01/12 03:15:31;;;;;;;;;;;;;;;;;;4991614;28;19922;-66
2024/01/12 03:18:02;;;;;;;;;;;;;;;;;;4992090;28;20270;-66
2024/01/12 03:20:27;;;;;;;;;;;;;;;;;;4974741;28;20320;-67
2024/01/12 03:22:55;;;;;;;;;;;;;;;;;;4995012;28;20268;-67
2024/01/12 03:25:21;;;;;;;;;;;;;;;;;;4972989;28;19924;-66
2024/01/12 03:27:46;;;;;;;;;;;;;;;;;;4959132;28;20393;-66
2024/01/12 03:30:13;;;;;;;;;;;;;;;;;;4991555;28;19921;-67
2024/01/12 03:32:39;;;;;;;;;;;;;;;;;;4974180;28;20003;-66
2024/01/12 03:35:09;;;;;;;;;;;;;;;;;;4975408;28;19994;-66
2024/01/12 03:37:35;;;;;;;;;;;;;;;;;;4974923;28;19972;-66
2024/01/12 03:40:00;;;;;;;;;;;;;;;;;;4974377;28;19926;-66
2024/01/12 03:42:25;;;;;;;;;;;;;;;;;;4957006;28;20272;-65
2024/01/12 03:44:53;;;;;;;;;;;;;;;;;;4957752;28;20237;-66
2024/01/12 03:47:23;;;;;;;;;;;;;;;;;;4968652;28;19929;-65
2024/01/12 03:49:51;;;;;;;;;;;;;;;;;;4970987;28;19922;-66
2024/01/12 03:52:16;;;;;;;;;;;;;;;;;;4971552;28;20293;-66
2024/01/12 03:54:44;;;;;;;;;;;;;;;;;;4953183;28;20147;-65
2024/01/12 03:57:12;;;;;;;;;;;;;;;;;;4968469;28;20011;-65
2024/01/12 03:59:40;;;;;;;;;;;;;;;;;;4969616;28;20415;-65
2024/01/12 04:02:06;;;;;;;;;;;;;;;;;;4952155;28;20036;-67
2024/01/12 04:04:31;;;;;;;;;;;;;;;;;;4970741;28;19957;-65
2024/01/12 04:06:59;;;;;;;;;;;;;;;;;;4971528;28;20004;-66
2024/01/12 04:12:43;;;;;;;;;;;;;;;;;;4970933;28;19933;-66
2024/01/12 04:15:11;;;;;;;;;;;;;;;;;;4972149;28;19976;-66
2024/01/12 04:17:38;;;;;;;;;;;;;;;;;;4971216;28;19918;-66
2024/01/12 04:20:04;;;;;;;;;;;;;;;;;;4954696;28;19926;-66
2024/01/12 04:22:29;;;;;;;;;;;;;;;;;;4968883;28;20278;-65
2024/01/12 04:24:57;;;;;;;;;;;;;;;;;;4969980;28;21437;-65
2024/01/12 04:27:32;;;;;;;;;;;;;;;;;;4953223;28;19922;-65
2024/01/12 04:29:57;;;;;;;;;;;;;;;;;;4970456;28;19942;-66
2024/01/12 04:32:22;;;;;;;;;;;;;;;;;;4970444;28;19929;-66
2024/01/12 04:34:48;;;;;;;;;;;;;;;;;;4987414;28;20375;-65
2024/01/12 04:37:13;;;;;;;;;;;;;;;;;;4955295;28;19922;-66
2024/01/12 04:39:38;;;;;;;;;;;;;;;;;;4967813;28;20650;-66
2024/01/12 04:42:06;;;;;;;;;;;;;;;;;;4953635;28;19959;-66
2024/01/12 04:44:31;;;;;;;;;;;;;;;;;;4969223;28;20281;-66
2024/01/12 04:46:57;;;;;;;;;;;;;;;;;;4950806;28;20427;-66
2024/01/12 04:49:22;;;;;;;;;;;;;;;;;;4986288;28;19928;-65
2024/01/12 04:51:47;;;;;;;;;;;;;;;;;;4986226;28;20400;-66
2024/01/12 04:54:12;;;;;;;;;;;;;;;;;;4954976;28;19928;-66
2024/01/12 04:56:38;;;;;;;;;;;;;;;;;;4970258;28;20052;-66
2024/01/12 04:59:03;;;;;;;;;;;;;;;;;;4968576;28;19941;-66
2024/01/12 05:01:28;;;;;;;;;;;;;;;;;;4970673;28;19984;-66
2024/01/12 05:03:59;;;;;;;;;;;;;;;;;;4968845;28;20004;-66
2024/01/12 05:06:24;;;;;;;;;;;;;;;;;;4954416;28;19918;-65
2024/01/12 05:08:50;;;;;;;;;;;;;;;;;;4971013;28;20027;-65
2024/01/12 05:11:18;;;;;;;;;;;;;;;;;;4966729;28;20019;-66
2024/01/12 05:13:46;;;;;;;;;;;;;;;;;;4953678;28;19921;-66
2024/01/12 05:16:11;;;;;;;;;;;;;;;;;;4967676;28;19944;-66
2024/01/12 05:18:36;;;;;;;;;;;;;;;;;;4984246;28;19918;-66
2024/01/12 05:21:04;;;;;;;;;;;;;;;;;;4951657;28;20012;-65
2024/01/12 05:23:35;;;;;;;;;;;;;;;;;;4971358;28;20312;-65
2024/01/12 05:26:02;;;;;;;;;;;;;;;;;;4968608;28;19922;-66
2024/01/12 05:28:27;;;;;;;;;;;;;;;;;;4967755;28;20434;-66
2024/01/12 05:30:53;;;;;;;;;;;;;;;;;;4967401;28;19953;-65
2024/01/12 05:33:18;;;;;;;;;;;;;;;;;;4971654;28;20325;-66
2024/01/12 05:35:43;;;;;;;;;;;;;;;;;;4956312;28;21342;-65
2024/01/12 05:38:08;;;;;;;;;;;;;;;;;;4969301;28;19964;-67
2024/01/12 05:40:37;;;;;;;;;;;;;;;;;;4970883;28;19928;-65
2024/01/12 05:43:05;;;;;;;;;;;;;;;;;;4970442;28;20008;-66
2024/01/12 05:45:33;;;;;;;;;;;;;;;;;;4944043;28;20532;-65
2024/01/12 05:48:00;;;;;;;;;;;;;;;;;;4983148;28;20027;-66
2024/01/12 05:50:26;;;;;;;;;;;;;;;;;;4990072;28;20007;-66
2024/01/12 05:52:51;;;;;;;;;;;;;;;;;;4990626;28;19921;-66
2024/01/12 05:55:16;;;;;;;;;;;;;;;;;;4970727;28;19976;-66
2024/01/12 05:57:41;;;;;;;;;;;;;;;;;;4989451;28;20299;-67
2024/01/12 06:00:09;;;;;;;;;;;;;;;;;;4992280;28;20385;-66
2024/01/12 06:02:34;;;;;;;;;;;;;;;;;;4953748;28;20016;-65
2024/01/12 06:05:02;;;;;;;;;;;;;;;;;;4973008;28;19979;-66
2024/01/12 06:07:30;;;;;;;;;;;;;;;;;;4970328;28;19917;-65
2024/01/12 06:09:55;;;;;;;;;;;;;;;;;;4970926;28;19918;-65
2024/01/12 06:12:23;;;;;;;;;;;;;;;;;;4969503;28;20333;-66
2024/01/12 06:14:51;;;;;;;;;;;;;;;;;;4988374;28;20547;-65
2024/01/12 06:17:16;;;;;;;;;;;;;;;;;;4952814;28;19917;-66
2024/01/12 06:19:41;;;;;;;;;;;;;;;;;;4971849;28;19991;-65
2024/01/12 06:22:18;;;;;;;;;;;;;;;;;;4957625;28;19922;-66
2024/01/12 06:24:46;;;;;;;;;;;;;;;;;;4990477;28;20061;-65
2024/01/12 06:27:11;;;;;;;;;;;;;;;;;;4991622;28;20064;-65
2024/01/12 06:29:36;;;;;;;;;;;;;;;;;;4962291;28;19922;-65
2024/01/12 06:32:04;;;;;;;;;;;;;;;;;;4975291;28;19921;-65
2024/01/12 06:34:29;;;;;;;;;;;;;;;;;;4973974;28;20933;-65
2024/01/12 06:36:57;;;;;;;;;;;;;;;;;;4994164;28;20384;-66
2024/01/12 06:39:23;;;;;;;;;;;;;;;;;;4957089;28;19921;-65
2024/01/12 06:41:48;;;;;;;;;;;;;;;;;;4993112;28;19933;-66
2024/01/12 06:44:14;;;;;;;;;;;;;;;;;;4958354;28;20008;-65
2024/01/12 06:46:42;;;;;;;;;;;;;;;;;;4976224;28;20207;-65
2024/01/12 06:49:07;;;;;;;;;;;;;;;;;;4976637;28;20300;-66
2024/01/12 06:51:35;;;;;;;;;;;;;;;;;;4995043;28;19929;-65
2024/01/12 06:54:05;;;;;;;;;;;;;;;;;;4975023;28;19929;-66
2024/01/12 06:56:32;;;;;;;;;;;;;;;;;;4992378;28;19918;-66
2024/01/12 06:59:00;;;;;;;;;;;;;;;;;;4973794;28;19928;-65
2024/01/12 07:01:25;;;;;;;;;;;;;;;;;;4976622;28;19996;-64
2024/01/12 07:03:56;;;;;;;;;;;;;;;;;;4975021;28;21505;-65
2024/01/12 07:06:23;;;;;;;;;;;;;;;;;;4991594;28;20413;-65
2024/01/12 07:08:51;;;;;;;;;;;;;;;;;;4977352;28;20004;-65
2024/01/12 07:11:23;;;;;;;;;;;;;;;;;;4961339;28;20554;-65
2024/01/12 07:13:48;;;;;;;;;;;;;;;;;;4956848;28;20135;-65
2024/01/12 07:16:14;;;;;;;;;;;;;;;;;;4957394;28;20336;-65
2024/01/12 07:18:41;;;;;;;;;;;;;;;;;;4953379;28;19921;-65
2024/01/12 07:21:07;;;;;;;;;;;;;;;;;;4974083;28;20453;-64
2024/01/12 07:23:32;;;;;;;;;;;;;;;;;;4972620;28;19921;-66
2024/01/12 07:26:00;;;;;;;;;;;;;;;;;;4959571;28;20515;-66
2024/01/12 07:28:31;;;;;;;;;;;;;;;;;;4960344;28;20324;-66
2024/01/12 07:30:56;;;;;;;;;;;;;;;;;;4976169;28;19921;-66
2024/01/12 07:33:24;;;;;;;;;;;;;;;;;;4975724;28;19921;-66
2024/01/12 07:35:49;;;;;;;;;;;;;;;;;;4994759;28;19928;-66
2024/01/12 07:38:18;;;;;;;;;;;;;;;;;;4992985;28;20020;-66
2024/01/12 07:40:43;;;;;;;;;;;;;;;;;;4976934;28;19921;-66
2024/01/12 07:43:14;;;;;;;;;;;;;;;;;;4994336;28;20309;-66
2024/01/12 07:45:40;;;;;;;;;;;;;;;;;;4976150;28;20005;-66
2024/01/12 07:48:05;;;;;;;;;;;;;;;;;;4958882;28;20040;-66
2024/01/12 07:50:33;;;;;;;;;;;;;;;;;;4976611;28;19917;-66
2024/01/12 07:52:58;;;;;;;;;;;;;;;;;;4960194;28;19944;-66
2024/01/12 07:55:23;;;;;;;;;;;;;;;;;;4993350;28;19922;-67
2024/01/12 07:57:52;;;;;;;;;;;;;;;;;;4976193;28;20020;-66
2024/01/12 08:00:17;;;;;;;;;;;;;;;;;;4992309;28;20040;-65
2024/01/12 08:02:45;;;;;;;;;;;;;;;;;;4961255;28;19917;-66
2024/01/12 08:05:13;;;;;;;;;;;;;;;;;;4975684;28;19991;-66
2024/01/12 08:07:39;;;;;;;;;;;;;;;;;;4978769;28;19917;-68
2024/01/12 08:10:04;;;;;;;;;;;;;;;;;;4993798;28;20042;-66
2024/01/12 08:12:30;;;;;;;;;;;;;;;;;;4976688;28;19925;-66
2024/01/12 08:14:55;;;;;;;;;;;;;;;;;;4976186;28;19924;-65
2024/01/12 08:17:26;;;;;;;;;;;;;;;;;;4974825;28;19999;-66
2024/01/12 08:19:54;;;;;;;;;;;;;;;;;;4976232;28;20277;-65
2024/01/12 08:22:24;;;;;;;;;;;;;;;;;;4976055;28;20387;-66
2024/01/12 08:24:50;;;;;;;;;;;;;;;;;;4959148;28;19922;-65
2024/01/12 08:27:17;;;;;;;;;;;;;;;;;;4975074;28;20333;-66
2024/01/12 08:29:42;;;;;;;;;;;;;;;;;;4974443;28;20360;-66
2024/01/12 08:32:08;;;;;;;;;;;;;;;;;;4994744;28;19980;-66
2024/01/12 08:34:33;;;;;;;;;;;;;;;;;;4958988;28;19924;-66
2024/01/12 08:37:00;;;;;;;;;;;;;;;;;;4992667;28;19947;-66
2024/01/12 08:39:29;;;;;;;;;;;;;;;;;;4958155;28;20428;-65
2024/01/12 08:41:57;;;;;;;;;;;;;;;;;;4975115;28;19936;-66
2024/01/12 08:44:22;;;;;;;;;;;;;;;;;;4974402;28;19917;-66
2024/01/12 08:46:47;;;;;;;;;;;;;;;;;;4971567;28;20269;-67
2024/01/12 08:49:12;;;;;;;;;;;;;;;;;;4990369;28;20023;-65
2024/01/12 08:51:40;;;;;;;;;;;;;;;;;;4960485;28;19968;-66
2024/01/12 08:54:08;;;;;;;;;;;;;;;;;;4960364;28;19917;-65
2024/01/12 08:56:35;;;;;;;;;;;;;;;;;;4972781;28;19917;-65
2024/01/12 08:59:03;;;;;;;;;;;;;;;;;;4957863;28;19928;-65
2024/01/12 09:01:28;;;;;;;;;;;;;;;;;;4975011;28;19933;-66
2024/01/12 09:03:56;;;;;;;;;;;;;;;;;;4973476;28;19928;-66
2024/01/12 09:06:23;;;;;;;;;;;;;;;;;;4992002;28;19917;-65
2024/01/12 09:08:48;;;;;;;;;;;;;;;;;;4992585;28;19940;-66
2024/01/12 09:11:14;;;;;;;;;;;;;;;;;;4957376;28;19921;-66
2024/01/12 09:13:39;;;;;;;;;;;;;;;;;;4974581;28;20020;-66
2024/01/12 09:16:06;;;;;;;;;;;;;;;;;;4993348;28;20071;-66
2024/01/12 09:18:32;;;;;;;;;;;;;;;;;;4992305;28;19924;-66
2024/01/12 09:20:59;;;;;;;;;;;;;;;;;;4974114;28;19928;-66
2024/01/12 09:23:27;;;;;;;;;;;;;;;;;;4959454;28;19917;-66
2024/01/12 09:25:55;;;;;;;;;;;;;;;;;;4988340;28;20357;-66
2024/01/12 09:28:20;;;;;;;;;;;;;;;;;;4992494;28;19917;-66
2024/01/12 09:30:51;;;;;;;;;;;;;;;;;;4971855;28;20474;-68
2024/01/12 09:33:22;;;;;;;;;;;;;;;;;;4956641;28;20059;-66
2024/01/12 09:35:49;;;;;;;;;;;;;;;;;;4957751;28;19953;-66
2024/01/12 09:38:14;;;;;;;;;;;;;;;;;;4990374;28;20680;-66
2024/01/12 09:40:40;;;;;;;;;;;;;;;;;;4974209;28;19932;-65
2024/01/12 09:43:10;;;;;;;;;;;;;;;;;;4991479;28;19992;-65
2024/01/12 09:45:35;;;;;;;;;;;;;;;;;;4958172;28;19917;-66
2024/01/12 09:48:03;;;;;;;;;;;;;;;;;;4969171;28;20044;-66
2024/01/12 09:50:31;;;;;;;;;;;;;;;;;;4955335;28;19959;-66
2024/01/12 09:52:57;;;;;;;;;;;;;;;;;;4974825;28;19921;-66
2024/01/12 09:55:27;;;;;;;;;;;;;;;;;;4973257;28;19925;-65
2024/01/12 09:57:53;;;;;;;;;;;;;;;;;;4958187;28;19961;-66
2024/01/12 10:00:18;;;;;;;;;;;;;;;;;;4957364;28;20461;-65
2024/01/12 10:02:47;;;;;;;;;;;;;;;;;;4961991;28;19922;-67
2024/01/12 10:05:14;;;;;;;;;;;;;;;;;;4963362;28;19924;-66
2024/01/12 10:07:40;;;;;;;;;;;;;;;;;;4976248;28;19918;-66
2024/01/12 10:10:05;;;;;;;;;;;;;;;;;;4962611;28;19918;-67
2024/01/12 10:12:33;;;;;;;;;;;;;;;;;;4978794;28;19929;-68
2024/01/12 10:14:59;;;;;;;;;;;;;;;;;;4996325;28;19921;-66
2024/01/12 10:17:24;;;;;;;;;;;;;;;;;;4976729;28;20512;-67
2024/01/12 10:19:52;;;;;;;;;;;;;;;;;;4978948;28;20469;-66
2024/01/12 10:22:20;;;;;;;;;;;;;;;;;;4960317;28;20378;-67
2024/01/12 10:24:48;;;;;;;;;;;;;;;;;;4995132;28;20033;-67
2024/01/12 10:27:13;;;;;;;;;;;;;;;;;;4960839;28;19922;-67
2024/01/12 10:29:38;;;;;;;;;;;;;;;;;;4991635;28;20035;-67
2024/01/12 10:32:04;;;;;;;;;;;;;;;;;;4978753;28;20411;-67
2024/01/12 10:34:33;;;;;;;;;;;;;;;;;;4962312;28;19917;-67
2024/01/12 10:37:01;;;;;;;;;;;;;;;;;;4975847;28;20387;-66
2024/01/12 10:39:30;;;;;;;;;;;;;;;;;;4962003;28;19964;-66
2024/01/12 10:41:55;;;;;;;;;;;;;;;;;;4975741;28;19929;-67
2024/01/12 10:44:20;;;;;;;;;;;;;;;;;;4995901;28;19953;-67
2024/01/12 10:46:45;;;;;;;;;;;;;;;;;;4993373;28;20340;-66
2024/01/12 10:49:14;;;;;;;;;;;;;;;;;;4975866;28;19952;-67
2024/01/12 10:51:39;;;;;;;;;;;;;;;;;;4962307;28;20361;-66
2024/01/12 10:54:07;;;;;;;;;;;;;;;;;;4961338;28;19921;-68
2024/01/12 10:56:42;;;;;;;;;;;;;;;;;;4977828;28;19924;-65
2024/01/12 10:59:10;;;;;;;;;;;;;;;;;;4992037;28;19975;-67
2024/01/12 11:01:35;;;;;;;;;;;;;;;;;;4977079;28;19925;-66
2024/01/12 11:07:20;;;;;;;;;;;;;;;;;;4995638;28;19929;-67
2024/01/12 11:09:45;;;;;;;;;;;;;;;;;;4977581;28;19921;-67
2024/01/12 11:12:10;;;;;;;;;;;;;;;;;;4961774;28;20645;-67
2024/01/12 11:14:36;;;;;;;;;;;;;;;;;;4959779;28;19917;-66
2024/01/12 11:17:01;;;;;;;;;;;;;;;;;;4993624;28;19921;-67
2024/01/12 11:19:45;;;;;;;;;;;;;;;;;;4994565;28;19917;-69
2024/01/12 11:22:10;;;;;;;;;;;;;;;;;;4995871;28;19964;-68
2024/01/12 11:24:38;;;;;;;;;;;;;;;;;;4959500;28;20146;-67
2024/01/12 11:27:04;;;;;;;;;;;;;;;;;;4960218;28;19921;-67
2024/01/12 11:29:30;;;;;;;;;;;;;;;;;;4977120;28;20383;-67
2024/01/12 11:32:00;;;;;;;;;;;;;;;;;;4960860;28;20004;-68
2024/01/12 11:34:25;;;;;;;;;;;;;;;;;;4994270;28;19921;-68
2024/01/12 11:36:56;;;;;;;;;;;;;;;;;;4959492;28;19972;-67
2024/01/12 11:39:24;;;;;;;;;;;;;;;;;;4976999;28;20939;-68
2024/01/12 11:41:52;;;;;;;;;;;;;;;;;;4980056;28;19932;-67
2024/01/12 11:44:17;;;;;;;;;;;;;;;;;;4990393;28;19917;-67
2024/01/12 11:46:43;;;;;;;;;;;;;;;;;;4990711;28;19926;-69
2024/01/12 11:49:11;;;;;;;;;;;;;;;;;;4977977;28;20483;-68
2024/01/12 11:51:36;;;;;;;;;;;;;;;;;;4977149;28;20020;-67
2024/01/12 11:54:01;;;;;;;;;;;;;;;;;;4976660;28;19917;-67
2024/01/12 11:56:29;;;;;;;;;;;;;;;;;;4976149;28;20020;-68
2024/01/12 11:58:54;;;;;;;;;;;;;;;;;;4978352;28;19996;-69
2024/01/12 12:01:19;;;;;;;;;;;;;;;;;;4993272;28;19968;-69
2024/01/12 12:03:45;;;;;;;;;;;;;;;;;;4975726;28;19921;-68
2024/01/12 12:06:13;;;;;;;;;;;;;;;;;;4962236;28;19917;-69
2024/01/12 12:08:38;;;;;;;;;;;;;;;;;;4975863;28;19992;-68
2024/01/12 12:11:09;;;;;;;;;;;;;;;;;;4973951;28;19972;-68
2024/01/12 12:13:35;;;;;;;;;;;;;;;;;;4976286;28;20438;-68
2024/01/12 12:16:03;;;;;;;;;;;;;;;;;;4976445;28;20728;-68
2024/01/12 12:18:31;;;;;;;;;;;;;;;;;;4974432;28;19917;-67
2024/01/12 12:20:58;;;;;;;;;;;;;;;;;;4974439;28;19992;-68
2024/01/12 12:23:23;;;;;;;;;;;;;;;;;;4960814;28;21888;-69
2024/01/12 12:25:49;;;;;;;;;;;;;;;;;;4974795;28;20049;-68
2024/01/12 12:28:17;;;;;;;;;;;;;;;;;;4960452;28;19926;-68
2024/01/12 12:30:42;;;;;;;;;;;;;;;;;;4976598;28;20119;-68
2024/01/12 12:33:10;;;;;;;;;;;;;;;;;;4995023;28;20146;-67
2024/01/12 12:35:37;;;;;;;;;;;;;;;;;;4977461;28;20229;-69
2024/01/12 12:38:08;;;;;;;;;;;;;;;;;;4995852;28;19921;-68
2024/01/12 12:40:39;;;;;;;;;;;;;;;;;;4976220;28;19921;-67
2024/01/12 12:43:07;;;;;;;;;;;;;;;;;;4977546;28;20400;-67
2024/01/12 12:45:32;;;;;;;;;;;;;;;;;;4976727;28;19921;-67
2024/01/12 12:48:03;;;;;;;;;;;;;;;;;;4975985;28;19929;-68
2024/01/12 12:50:29;;;;;;;;;;;;;;;;;;4974813;28;19921;-67
2024/01/12 12:52:54;;;;;;;;;;;;;;;;;;4957838;28;19972;-68
2024/01/12 12:55:23;;;;;;;;;;;;;;;;;;4977537;28;19919;-67
2024/01/12 12:57:51;;;;;;;;;;;;;;;;;;4959329;28;20240;-68
2024/01/12 13:00:16;;;;;;;;;;;;;;;;;;4976939;28;19948;-67
2024/01/12 13:02:41;;;;;;;;;;;;;;;;;;4975532;28;19917;-67
2024/01/12 13:05:11;;;;;;;;;;;;;;;;;;4976240;28;19987;-67
2024/01/12 13:07:36;;;;;;;;;;;;;;;;;;4976006;28;20013;-68
2024/01/12 13:10:01;;;;;;;;;;;;;;;;;;4975951;28;19914;-68
2024/01/12 13:12:27;;;;;;;;;;;;;;;;;;4994661;28;19917;-67
2024/01/12 13:14:55;;;;;;;;;;;;;;;;;;4975727;28;20028;-68
2024/01/12 13:17:23;;;;;;;;;;;;;;;;;;4993586;28;20005;-68
2024/01/12 13:19:51;;;;;;;;;;;;;;;;;;4976853;28;19918;-68
2024/01/12 13:22:16;;;;;;;;;;;;;;;;;;4975673;28;20345;-68
2024/01/12 13:24:44;;;;;;;;;;;;;;;;;;4976116;28;20483;-68
2024/01/12 13:27:18;;;;;;;;;;;;;;;;;;4974079;28;19971;-68
2024/01/12 13:29:43;;;;;;;;;;;;;;;;;;4993297;28;19917;-68
2024/01/12 13:32:12;;;;;;;;;;;;;;;;;;4973633;28;19928;-68
2024/01/12 13:34:38;;;;;;;;;;;;;;;;;;4975353;28;19918;-69
2024/01/12 13:37:08;;;;;;;;;;;;;;;;;;4994433;28;20028;-68
2024/01/12 13:39:33;;;;;;;;;;;;;;;;;;4994263;28;19929;-68
2024/01/12 13:42:02;;;;;;;;;;;;;;;;;;4993888;28;19921;-69
2024/01/12 13:44:29;;;;;;;;;;;;;;;;;;4993477;28;19964;-68
2024/01/12 13:46:55;;;;;;;;;;;;;;;;;;4954070;28;19927;-69
2024/01/12 13:49:23;;;;;;;;;;;;;;;;;;4976465;28;20092;-68
2024/01/12 13:51:48;;;;;;;;;;;;;;;;;;4972281;28;20377;-69
2024/01/12 13:54:14;;;;;;;;;;;;;;;;;;4993773;28;19918;-69
2024/01/12 13:56:39;;;;;;;;;;;;;;;;;;4975018;28;20345;-69
2024/01/12 13:59:07;;;;;;;;;;;;;;;;;;4975650;28;19921;-68
2024/01/12 14:01:35;;;;;;;;;;;;;;;;;;4957841;28;20028;-68
2024/01/12 14:04:00;;;;;;;;;;;;;;;;;;4956706;28;20012;-70
2024/01/12 14:06:31;;;;;;;;;;;;;;;;;;4991861;28;19917;-68
2024/01/12 14:08:56;;;;;;;;;;;;;;;;;;4970777;28;20001;-68
2024/01/12 14:11:24;;;;;;;;;;;;;;;;;;4973755;28;20245;-68
2024/01/12 14:13:52;;;;;;;;;;;;;;;;;;4972975;28;20024;-68
2024/01/12 14:16:17;;;;;;;;;;;;;;;;;;4974130;28;19948;-69
2024/01/12 14:18:45;;;;;;;;;;;;;;;;;;4989859;28;21549;-70
2024/01/12 14:21:10;;;;;;;;;;;;;;;;;;4956919;28;20159;-68
2024/01/12 14:23:38;;;;;;;;;;;;;;;;;;4974305;28;20404;-69
2024/01/12 14:26:06;;;;;;;;;;;;;;;;;;4990534;28;20039;-68
2024/01/12 14:28:32;;;;;;;;;;;;;;;;;;4973091;28;20291;-67
2024/01/12 14:30:57;;;;;;;;;;;;;;;;;;4973657;28;19975;-68
2024/01/12 14:33:26;;;;;;;;;;;;;;;;;;4989697;28;19928;-68
2024/01/12 14:35:51;;;;;;;;;;;;;;;;;;4973446;28;19925;-69
2024/01/12 14:38:17;;;;;;;;;;;;;;;;;;4972840;28;19979;-69
2024/01/12 14:40:42;;;;;;;;;;;;;;;;;;4968174;28;19925;-69
2024/01/12 14:43:10;;;;;;;;;;;;;;;;;;4973452;28;20000;-68
2024/01/12 14:45:35;;;;;;;;;;;;;;;;;;4991111;28;20457;-68
2024/01/12 14:48:02;;;;;;;;;;;;;;;;;;4974781;28;20305;-69
2024/01/12 14:50:30;;;;;;;;;;;;;;;;;;4995363;28;20336;-69
2024/01/12 14:52:55;;;;;;;;;;;;;;;;;;4976075;28;19921;-69
2024/01/12 14:55:21;;;;;;;;;;;;;;;;;;4990281;28;19929;-68
2024/01/12 14:57:46;;;;;;;;;;;;;;;;;;4959327;28;19917;-68
2024/01/12 15:00:14;;;;;;;;;;;;;;;;;;4973798;28;19922;-69
2024/01/12 15:02:43;;;;;;;;;;;;;;;;;;4972874;28;20565;-68
2024/01/12 15:05:15;;;;;;;;;;;;;;;;;;4990251;28;19984;-69
2024/01/12 15:07:44;;;;;;;;;;;;;;;;;;4949546;28;19917;-69
2024/01/12 15:10:10;;;;;;;;;;;;;;;;;;4983348;28;20012;-68
2024/01/12 15:12:35;;;;;;;;;;;;;;;;;;4982182;28;19924;-68
2024/01/12 15:15:01;;;;;;;;;;;;;;;;;;4974439;28;19928;-69
2024/01/12 15:17:27;;;;;;;;;;;;;;;;;;4972396;28;19925;-67
2024/01/12 15:19:54;;;;;;;;;;;;;;;;;;4972719;28;20050;-68
2024/01/12 15:22:20;;;;;;;;;;;;;;;;;;4958474;28;19932;-69
2024/01/12 15:24:46;;;;;;;;;;;;;;;;;;4973477;28;19921;-69
2024/01/12 15:27:14;;;;;;;;;;;;;;;;;;4953579;28;19959;-68
2024/01/12 15:29:42;;;;;;;;;;;;;;;;;;4979716;28;20004;-69
2024/01/12 15:32:07;;;;;;;;;;;;;;;;;;4969481;28;19925;-69
2024/01/12 15:34:38;;;;;;;;;;;;;;;;;;4974409;28;19978;-69
2024/01/12 15:37:06;;;;;;;;;;;;;;;;;;4990046;28;19960;-68
2024/01/12 15:39:38;;;;;;;;;;;;;;;;;;4969000;28;20092;-70
2024/01/12 15:42:05;;;;;;;;;;;;;;;;;;4990066;28;19980;-68
2024/01/12 15:44:33;;;;;;;;;;;;;;;;;;4991043;28;20047;-68
2024/01/12 15:46:58;;;;;;;;;;;;;;;;;;4974701;28;20393;-69
2024/01/12 15:49:23;;;;;;;;;;;;;;;;;;4956834;28;19926;-69
2024/01/12 15:51:51;;;;;;;;;;;;;;;;;;4957302;28;20032;-69
2024/01/12 15:54:16;;;;;;;;;;;;;;;;;;4987795;28;19987;-69
2024/01/12 15:56:42;;;;;;;;;;;;;;;;;;4970925;28;19923;-69
2024/01/12 15:59:10;;;;;;;;;;;;;;;;;;4957458;28;20027;-68
2024/01/12 16:01:35;;;;;;;;;;;;;;;;;;4969576;28;20019;-68
2024/01/12 16:04:03;;;;;;;;;;;;;;;;;;4957835;28;20400;-68
2024/01/12 16:06:31;;;;;;;;;;;;;;;;;;4989835;28;19918;-69
2024/01/12 16:09:01;;;;;;;;;;;;;;;;;;4988357;28;19921;-69
2024/01/12 16:11:26;;;;;;;;;;;;;;;;;;4987721;28;19933;-69
2024/01/12 16:13:54;;;;;;;;;;;;;;;;;;4956597;28;19921;-68
2024/01/12 16:16:22;;;;;;;;;;;;;;;;;;4991478;28;19956;-69
2024/01/12 16:18:50;;;;;;;;;;;;;;;;;;4972216;28;21339;-71
2024/01/12 16:21:15;;;;;;;;;;;;;;;;;;4986713;28;19937;-68
2024/01/12 16:23:40;;;;;;;;;;;;;;;;;;4972061;28;19944;-68
2024/01/12 16:26:06;;;;;;;;;;;;;;;;;;4968514;28;19917;-69
2024/01/12 16:28:31;;;;;;;;;;;;;;;;;;4985130;28;19922;-68
2024/01/12 16:30:59;;;;;;;;;;;;;;;;;;4946157;28;19925;-69
2024/01/12 16:33:26;;;;;;;;;;;;;;;;;;4956305;28;19917;-69
2024/01/12 16:35:52;;;;;;;;;;;;;;;;;;4948474;28;20068;-68
2024/01/12 16:38:20;;;;;;;;;;;;;;;;;;4953221;28;19918;-69
2024/01/12 16:40:48;;;;;;;;;;;;;;;;;;4972352;28;19976;-68
2024/01/12 16:43:13;;;;;;;;;;;;;;;;;;4985411;28;19922;-67
2024/01/12 16:45:38;;;;;;;;;;;;;;;;;;4973767;28;20020;-68
2024/01/12 16:48:05;;;;;;;;;;;;;;;;;;4991000;28;19965;-69
2024/01/12 16:50:30;;;;;;;;;;;;;;;;;;4969470;28;20012;-69
2024/01/12 16:52:55;;;;;;;;;;;;;;;;;;4972151;28;19926;-69